sensor_id;sensor_type;location;lat;lon;timestamp;P1;durP1;ratioP1;P2;durP2;ratioP2
38435;SDS011;24220;48.168;14.024;2023-03-23T00:01:27;8.65;;;4.80;;
38435;SDS011;24220;48.168;14.024;2023-03-23T00:03:56;8.23;;;5.20;;
38435;SDS011;24220;48.168;14.024;2023-03-23T00:06:25;5.85;;;4.55;;
38435;SDS011;24220;48.168;14.024;2023-03-23T00:08:54;7.50;;;4.93;;
38435;SDS011;24220;48.168;14.024;2023-03-23T00:11:28;5.95;;;5.00;;
38435;SDS011;24220;48.168;14.024;2023-03-23T00:13:56;6.18;;;4.75;;
38435;SDS011;24220;48.168;14.024;2023-03-23T00:16:30;6.60;;;5.55;;
38435;SDS011;24220;48.168;14.024;2023-03-23T00:19:02;7.32;;;5.40;;
38435;SDS011;24220;48.168;14.024;2023-03-23T00:21:35;8.65;;;5.63;;
38435;SDS011;24220;48.168;14.024;2023-03-23T00:26:33;6.47;;;5.32;;
38435;SDS011;24220;48.168;14.024;2023-03-23T00:29:03;8.32;;;5.60;;
38435;SDS011;24220;48.168;14.024;2023-03-23T00:31:35;7.70;;;5.32;;
38435;SDS011;24220;48.168;14.024;2023-03-23T00:34:02;5.90;;;5.10;;
38435;SDS011;24220;48.168;14.024;2023-03-23T00:36:30;8.88;;;5.10;;
38435;SDS011;24220;48.168;14.024;2023-03-23T00:39:01;7.80;;;6.00;;
38435;SDS011;24220;48.168;14.024;2023-03-23T00:41:33;8.60;;;5.95;;
38435;SDS011;24220;48.168;14.024;2023-03-23T00:44:06;8.63;;;6.40;;
38435;SDS011;24220;48.168;14.024;2023-03-23T00:46:34;7.45;;;6.38;;
38435;SDS011;24220;48.168;14.024;2023-03-23T00:49:13;7.82;;;6.78;;
38435;SDS011;24220;48.168;14.024;2023-03-23T00:51:42;9.70;;;6.63;;
38435;SDS011;24220;48.168;14.024;2023-03-23T00:54:09;9.10;;;6.70;;
38435;SDS011;24220;48.168;14.024;2023-03-23T00:56:36;9.35;;;6.88;;
38435;SDS011;24220;48.168;14.024;2023-03-23T00:59:04;9.90;;;6.68;;
38435;SDS011;24220;48.168;14.024;2023-03-23T01:01:31;10.38;;;7.38;;
38435;SDS011;24220;48.168;14.024;2023-03-23T01:03:58;11.55;;;7.75;;
38435;SDS011;24220;48.168;14.024;2023-03-23T01:06:30;12.63;;;8.57;;
38435;SDS011;24220;48.168;14.024;2023-03-23T01:08:58;10.38;;;8.38;;
38435;SDS011;24220;48.168;14.024;2023-03-23T01:11:27;11.15;;;8.75;;
38435;SDS011;24220;48.168;14.024;2023-03-23T01:13:53;12.95;;;9.25;;
38435;SDS011;24220;48.168;14.024;2023-03-23T01:16:20;14.77;;;9.57;;
38435;SDS011;24220;48.168;14.024;2023-03-23T01:18:52;11.25;;;8.63;;
38435;SDS011;24220;48.168;14.024;2023-03-23T01:21:19;10.32;;;8.43;;
38435;SDS011;24220;48.168;14.024;2023-03-23T01:23:50;14.50;;;9.02;;
38435;SDS011;24220;48.168;14.024;2023-03-23T01:26:20;11.85;;;8.70;;
38435;SDS011;24220;48.168;14.024;2023-03-23T01:28:54;12.18;;;9.20;;
38435;SDS011;24220;48.168;14.024;2023-03-23T01:31:23;16.60;;;10.32;;
38435;SDS011;24220;48.168;14.024;2023-03-23T01:33:50;16.00;;;10.32;;
38435;SDS011;24220;48.168;14.024;2023-03-23T01:36:22;13.65;;;9.35;;
38435;SDS011;24220;48.168;14.024;2023-03-23T01:38:54;12.43;;;9.35;;
38435;SDS011;24220;48.168;14.024;2023-03-23T01:41:23;13.48;;;9.32;;
38435;SDS011;24220;48.168;14.024;2023-03-23T01:46:33;12.07;;;8.75;;
38435;SDS011;24220;48.168;14.024;2023-03-23T01:51:35;12.75;;;9.40;;
38435;SDS011;24220;48.168;14.024;2023-03-23T01:54:07;12.10;;;8.82;;
38435;SDS011;24220;48.168;14.024;2023-03-23T01:56:38;12.13;;;9.52;;
38435;SDS011;24220;48.168;14.024;2023-03-23T01:59:11;11.35;;;9.05;;
38435;SDS011;24220;48.168;14.024;2023-03-23T02:01:41;14.70;;;10.10;;
38435;SDS011;24220;48.168;14.024;2023-03-23T02:04:12;16.10;;;9.77;;
38435;SDS011;24220;48.168;14.024;2023-03-23T02:06:42;12.18;;;9.35;;
38435;SDS011;24220;48.168;14.024;2023-03-23T02:09:11;15.15;;;9.88;;
38435;SDS011;24220;48.168;14.024;2023-03-23T02:11:42;12.00;;;9.07;;
38435;SDS011;24220;48.168;14.024;2023-03-23T02:14:09;16.83;;;10.15;;
38435;SDS011;24220;48.168;14.024;2023-03-23T02:37:57;12.77;;;9.43;;
38435;SDS011;24220;48.168;14.024;2023-03-23T02:40:32;10.88;;;9.63;;
38435;SDS011;24220;48.168;14.024;2023-03-23T02:43:08;11.90;;;8.88;;
38435;SDS011;24220;48.168;14.024;2023-03-23T02:45:38;12.05;;;9.05;;
38435;SDS011;24220;48.168;14.024;2023-03-23T02:48:05;13.68;;;10.15;;
38435;SDS011;24220;48.168;14.024;2023-03-23T02:50:40;12.98;;;9.18;;
38435;SDS011;24220;48.168;14.024;2023-03-23T02:53:12;11.32;;;8.32;;
38435;SDS011;24220;48.168;14.024;2023-03-23T02:55:41;12.27;;;8.82;;
38435;SDS011;24220;48.168;14.024;2023-03-23T02:58:10;10.02;;;8.15;;
38435;SDS011;24220;48.168;14.024;2023-03-23T03:00:40;11.10;;;9.20;;
38435;SDS011;24220;48.168;14.024;2023-03-23T03:03:13;13.70;;;9.35;;
38435;SDS011;24220;48.168;14.024;2023-03-23T03:11:23;10.10;;;8.38;;
38435;SDS011;24220;48.168;14.024;2023-03-23T03:19:13;10.45;;;7.55;;
38435;SDS011;24220;48.168;14.024;2023-03-23T03:21:46;10.82;;;8.38;;
38435;SDS011;24220;48.168;14.024;2023-03-23T03:24:17;13.30;;;8.50;;
38435;SDS011;24220;48.168;14.024;2023-03-23T03:26:46;10.55;;;8.02;;
38435;SDS011;24220;48.168;14.024;2023-03-23T03:29:15;10.52;;;8.38;;
38435;SDS011;24220;48.168;14.024;2023-03-23T03:31:44;10.23;;;7.90;;
38435;SDS011;24220;48.168;14.024;2023-03-23T03:34:15;12.07;;;8.32;;
38435;SDS011;24220;48.168;14.024;2023-03-23T03:36:45;11.98;;;8.40;;
38435;SDS011;24220;48.168;14.024;2023-03-23T03:39:16;12.43;;;8.65;;
38435;SDS011;24220;48.168;14.024;2023-03-23T03:41:46;10.65;;;8.18;;
38435;SDS011;24220;48.168;14.024;2023-03-23T03:44:20;12.90;;;8.45;;
38435;SDS011;24220;48.168;14.024;2023-03-23T03:46:46;10.43;;;8.10;;
38435;SDS011;24220;48.168;14.024;2023-03-23T03:49:12;12.88;;;8.25;;
38435;SDS011;24220;48.168;14.024;2023-03-23T03:51:39;11.27;;;8.10;;
38435;SDS011;24220;48.168;14.024;2023-03-23T03:54:06;13.00;;;8.60;;
38435;SDS011;24220;48.168;14.024;2023-03-23T03:56:35;13.13;;;8.35;;
38435;SDS011;24220;48.168;14.024;2023-03-23T03:59:06;10.02;;;8.05;;
38435;SDS011;24220;48.168;14.024;2023-03-23T04:01:35;11.75;;;8.35;;
38435;SDS011;24220;48.168;14.024;2023-03-23T04:04:05;13.23;;;7.78;;
38435;SDS011;24220;48.168;14.024;2023-03-23T04:06:36;10.13;;;7.88;;
38435;SDS011;24220;48.168;14.024;2023-03-23T04:09:03;9.60;;;7.20;;
38435;SDS011;24220;48.168;14.024;2023-03-23T04:14:03;11.52;;;7.68;;
38435;SDS011;24220;48.168;14.024;2023-03-23T04:16:34;9.18;;;7.35;;
38435;SDS011;24220;48.168;14.024;2023-03-23T04:19:01;11.43;;;7.97;;
38435;SDS011;24220;48.168;14.024;2023-03-23T04:21:29;9.98;;;8.27;;
38435;SDS011;24220;48.168;14.024;2023-03-23T04:23:56;8.50;;;7.18;;
38435;SDS011;24220;48.168;14.024;2023-03-23T04:26:29;8.98;;;7.65;;
38435;SDS011;24220;48.168;14.024;2023-03-23T04:28:55;9.43;;;8.10;;
38435;SDS011;24220;48.168;14.024;2023-03-23T04:31:28;10.50;;;7.68;;
38435;SDS011;24220;48.168;14.024;2023-03-23T04:33:59;11.30;;;8.53;;
38435;SDS011;24220;48.168;14.024;2023-03-23T04:36:29;14.20;;;8.15;;
38435;SDS011;24220;48.168;14.024;2023-03-23T04:39:02;11.40;;;8.68;;
38435;SDS011;24220;48.168;14.024;2023-03-23T04:41:32;11.00;;;8.27;;
38435;SDS011;24220;48.168;14.024;2023-03-23T04:44:01;13.90;;;8.38;;
38435;SDS011;24220;48.168;14.024;2023-03-23T04:46:30;9.45;;;7.88;;
38435;SDS011;24220;48.168;14.024;2023-03-23T04:49:02;12.30;;;9.23;;
38435;SDS011;24220;48.168;14.024;2023-03-23T04:51:33;12.25;;;9.02;;
38435;SDS011;24220;48.168;14.024;2023-03-23T04:54:01;10.77;;;8.50;;
38435;SDS011;24220;48.168;14.024;2023-03-23T04:56:30;9.68;;;8.13;;
38435;SDS011;24220;48.168;14.024;2023-03-23T04:58:58;11.60;;;9.05;;
38435;SDS011;24220;48.168;14.024;2023-03-23T05:01:27;12.13;;;8.68;;
38435;SDS011;24220;48.168;14.024;2023-03-23T05:03:53;12.27;;;8.68;;
38435;SDS011;24220;48.168;14.024;2023-03-23T05:06:22;12.20;;;8.88;;
38435;SDS011;24220;48.168;14.024;2023-03-23T05:08:50;11.50;;;8.70;;
38435;SDS011;24220;48.168;14.024;2023-03-23T05:11:17;10.15;;;8.20;;
38435;SDS011;24220;48.168;14.024;2023-03-23T05:13:46;10.32;;;8.20;;
38435;SDS011;24220;48.168;14.024;2023-03-23T05:16:14;10.57;;;7.03;;
38435;SDS011;24220;48.168;14.024;2023-03-23T05:18:43;9.85;;;6.20;;
38435;SDS011;24220;48.168;14.024;2023-03-23T05:21:13;9.52;;;5.75;;
38435;SDS011;24220;48.168;14.024;2023-03-23T05:23:42;7.57;;;5.80;;
38435;SDS011;24220;48.168;14.024;2023-03-23T05:26:11;9.57;;;7.43;;
38435;SDS011;24220;48.168;14.024;2023-03-23T05:28:39;9.15;;;7.05;;
38435;SDS011;24220;48.168;14.024;2023-03-23T05:31:08;7.45;;;6.40;;
38435;SDS011;24220;48.168;14.024;2023-03-23T05:33:34;6.35;;;5.22;;
38435;SDS011;24220;48.168;14.024;2023-03-23T05:36:01;7.45;;;5.35;;
38435;SDS011;24220;48.168;14.024;2023-03-23T05:38:32;10.55;;;5.68;;
38435;SDS011;24220;48.168;14.024;2023-03-23T05:41:01;8.68;;;5.72;;
38435;SDS011;24220;48.168;14.024;2023-03-23T05:43:27;6.55;;;5.55;;
38435;SDS011;24220;48.168;14.024;2023-03-23T05:45:56;9.98;;;5.57;;
38435;SDS011;24220;48.168;14.024;2023-03-23T05:48:24;8.73;;;5.80;;
38435;SDS011;24220;48.168;14.024;2023-03-23T05:50:53;10.32;;;5.50;;
38435;SDS011;24220;48.168;14.024;2023-03-23T05:53:21;8.20;;;6.18;;
38435;SDS011;24220;48.168;14.024;2023-03-23T05:55:49;10.00;;;7.35;;
38435;SDS011;24220;48.168;14.024;2023-03-23T05:58:21;12.85;;;7.80;;
38435;SDS011;24220;48.168;14.024;2023-03-23T06:00:50;10.27;;;7.88;;
38435;SDS011;24220;48.168;14.024;2023-03-23T06:03:18;13.75;;;8.35;;
38435;SDS011;24220;48.168;14.024;2023-03-23T06:05:50;12.10;;;8.35;;
38435;SDS011;24220;48.168;14.024;2023-03-23T06:08:18;11.65;;;8.40;;
38435;SDS011;24220;48.168;14.024;2023-03-23T06:10:48;13.02;;;8.85;;
38435;SDS011;24220;48.168;14.024;2023-03-23T06:13:22;14.25;;;8.77;;
38435;SDS011;24220;48.168;14.024;2023-03-23T06:15:54;9.93;;;8.10;;
38435;SDS011;24220;48.168;14.024;2023-03-23T06:18:24;10.18;;;8.68;;
38435;SDS011;24220;48.168;14.024;2023-03-23T06:20:54;14.07;;;9.10;;
38435;SDS011;24220;48.168;14.024;2023-03-23T06:23:20;13.38;;;8.45;;
38435;SDS011;24220;48.168;14.024;2023-03-23T06:25:52;11.85;;;7.88;;
38435;SDS011;24220;48.168;14.024;2023-03-23T06:28:23;13.77;;;7.78;;
38435;SDS011;24220;48.168;14.024;2023-03-23T06:30:50;10.02;;;6.85;;
38435;SDS011;24220;48.168;14.024;2023-03-23T06:33:19;8.20;;;6.18;;
38435;SDS011;24220;48.168;14.024;2023-03-23T06:35:51;9.98;;;6.90;;
38435;SDS011;24220;48.168;14.024;2023-03-23T06:38:17;9.40;;;7.22;;
38435;SDS011;24220;48.168;14.024;2023-03-23T06:40:44;10.85;;;7.20;;
38435;SDS011;24220;48.168;14.024;2023-03-23T06:43:12;9.68;;;7.07;;
38435;SDS011;24220;48.168;14.024;2023-03-23T06:45:39;11.02;;;7.13;;
38435;SDS011;24220;48.168;14.024;2023-03-23T06:48:08;10.60;;;7.22;;
38435;SDS011;24220;48.168;14.024;2023-03-23T06:50:41;9.75;;;6.90;;
38435;SDS011;24220;48.168;14.024;2023-03-23T06:53:11;9.90;;;7.65;;
38435;SDS011;24220;48.168;14.024;2023-03-23T06:55:42;11.52;;;7.88;;
38435;SDS011;24220;48.168;14.024;2023-03-23T06:58:09;9.20;;;7.18;;
38435;SDS011;24220;48.168;14.024;2023-03-23T07:00:35;12.20;;;7.80;;
38435;SDS011;24220;48.168;14.024;2023-03-23T07:03:04;11.80;;;8.30;;
38435;SDS011;24220;48.168;14.024;2023-03-23T07:05:34;11.68;;;8.13;;
38435;SDS011;24220;48.168;14.024;2023-03-23T07:08:02;10.88;;;7.65;;
38435;SDS011;24220;48.168;14.024;2023-03-23T07:10:32;10.00;;;8.05;;
38435;SDS011;24220;48.168;14.024;2023-03-23T07:12:59;12.05;;;7.85;;
38435;SDS011;24220;48.168;14.024;2023-03-23T07:15:25;14.30;;;9.32;;
38435;SDS011;24220;48.168;14.024;2023-03-23T07:17:54;10.85;;;8.32;;
38435;SDS011;24220;48.168;14.024;2023-03-23T07:20:21;9.98;;;8.40;;
38435;SDS011;24220;48.168;14.024;2023-03-23T07:22:49;11.00;;;7.45;;
38435;SDS011;24220;48.168;14.024;2023-03-23T07:25:16;9.73;;;7.50;;
38435;SDS011;24220;48.168;14.024;2023-03-23T07:27:44;9.20;;;8.30;;
38435;SDS011;24220;48.168;14.024;2023-03-23T07:30:11;8.85;;;7.00;;
38435;SDS011;24220;48.168;14.024;2023-03-23T07:32:40;10.07;;;7.15;;
38435;SDS011;24220;48.168;14.024;2023-03-23T07:35:09;10.18;;;6.63;;
38435;SDS011;24220;48.168;14.024;2023-03-23T07:37:36;8.77;;;6.18;;
38435;SDS011;24220;48.168;14.024;2023-03-23T07:40:05;7.97;;;5.70;;
38435;SDS011;24220;48.168;14.024;2023-03-23T07:42:42;7.05;;;5.88;;
38435;SDS011;24220;48.168;14.024;2023-03-23T07:45:15;9.50;;;5.60;;
38435;SDS011;24220;48.168;14.024;2023-03-23T07:47:42;6.55;;;5.05;;
38435;SDS011;24220;48.168;14.024;2023-03-23T07:50:11;5.63;;;4.78;;
38435;SDS011;24220;48.168;14.024;2023-03-23T07:52:38;6.95;;;5.03;;
38435;SDS011;24220;48.168;14.024;2023-03-23T07:55:05;9.32;;;5.85;;
38435;SDS011;24220;48.168;14.024;2023-03-23T07:57:33;6.18;;;5.47;;
38435;SDS011;24220;48.168;14.024;2023-03-23T08:00:00;6.07;;;5.05;;
38435;SDS011;24220;48.168;14.024;2023-03-23T08:02:29;7.75;;;5.65;;
38435;SDS011;24220;48.168;14.024;2023-03-23T08:04:57;6.93;;;5.00;;
38435;SDS011;24220;48.168;14.024;2023-03-23T08:07:26;6.63;;;4.63;;
38435;SDS011;24220;48.168;14.024;2023-03-23T08:09:55;8.45;;;5.10;;
38435;SDS011;24220;48.168;14.024;2023-03-23T08:12:26;8.45;;;4.80;;
38435;SDS011;24220;48.168;14.024;2023-03-23T08:14:57;9.65;;;5.55;;
38435;SDS011;24220;48.168;14.024;2023-03-23T08:17:24;8.30;;;5.80;;
38435;SDS011;24220;48.168;14.024;2023-03-23T08:19:51;7.20;;;5.53;;
38435;SDS011;24220;48.168;14.024;2023-03-23T08:22:18;16.63;;;5.57;;
38435;SDS011;24220;48.168;14.024;2023-03-23T08:24:45;6.97;;;5.10;;
38435;SDS011;24220;48.168;14.024;2023-03-23T08:27:11;5.35;;;4.78;;
38435;SDS011;24220;48.168;14.024;2023-03-23T08:29:37;8.00;;;4.90;;
38435;SDS011;24220;48.168;14.024;2023-03-23T08:32:04;7.55;;;4.90;;
38435;SDS011;24220;48.168;14.024;2023-03-23T08:34:30;8.45;;;4.40;;
38435;SDS011;24220;48.168;14.024;2023-03-23T08:36:58;5.97;;;4.18;;
38435;SDS011;24220;48.168;14.024;2023-03-23T08:39:24;5.30;;;4.10;;
38435;SDS011;24220;48.168;14.024;2023-03-23T08:41:51;7.40;;;4.15;;
38435;SDS011;24220;48.168;14.024;2023-03-23T08:44:18;5.60;;;4.20;;
38435;SDS011;24220;48.168;14.024;2023-03-23T08:46:47;7.80;;;4.18;;
38435;SDS011;24220;48.168;14.024;2023-03-23T08:49:15;7.43;;;5.13;;
38435;SDS011;24220;48.168;14.024;2023-03-23T08:51:44;8.98;;;5.13;;
38435;SDS011;24220;48.168;14.024;2023-03-23T08:54:18;10.07;;;5.40;;
38435;SDS011;24220;48.168;14.024;2023-03-23T08:56:44;6.90;;;5.28;;
38435;SDS011;24220;48.168;14.024;2023-03-23T08:59:15;7.17;;;5.57;;
38435;SDS011;24220;48.168;14.024;2023-03-23T09:01:45;8.88;;;6.03;;
38435;SDS011;24220;48.168;14.024;2023-03-23T09:04:11;7.97;;;5.35;;
38435;SDS011;24220;48.168;14.024;2023-03-23T09:06:40;4.90;;;4.35;;
38435;SDS011;24220;48.168;14.024;2023-03-23T09:09:10;7.72;;;4.72;;
38435;SDS011;24220;48.168;14.024;2023-03-23T09:11:38;6.75;;;4.97;;
38435;SDS011;24220;48.168;14.024;2023-03-23T09:14:07;7.30;;;5.10;;
38435;SDS011;24220;48.168;14.024;2023-03-23T09:16:34;8.48;;;5.57;;
38435;SDS011;24220;48.168;14.024;2023-03-23T09:19:03;7.97;;;6.13;;
38435;SDS011;24220;48.168;14.024;2023-03-23T09:21:29;8.68;;;5.00;;
38435;SDS011;24220;48.168;14.024;2023-03-23T09:23:56;6.20;;;5.13;;
38435;SDS011;24220;48.168;14.024;2023-03-23T09:26:24;12.38;;;5.63;;
38435;SDS011;24220;48.168;14.024;2023-03-23T09:28:53;8.60;;;5.70;;
38435;SDS011;24220;48.168;14.024;2023-03-23T09:31:22;6.10;;;5.35;;
38435;SDS011;24220;48.168;14.024;2023-03-23T09:33:54;8.65;;;5.22;;
38435;SDS011;24220;48.168;14.024;2023-03-23T09:36:25;9.60;;;5.63;;
38435;SDS011;24220;48.168;14.024;2023-03-23T09:38:51;9.43;;;6.38;;
38435;SDS011;24220;48.168;14.024;2023-03-23T09:44:06;9.73;;;6.07;;
38435;SDS011;24220;48.168;14.024;2023-03-23T09:49:30;7.05;;;4.68;;
38435;SDS011;24220;48.168;14.024;2023-03-23T09:52:14;7.93;;;4.90;;
38435;SDS011;24220;48.168;14.024;2023-03-23T09:54:45;5.97;;;4.57;;
38435;SDS011;24220;48.168;14.024;2023-03-23T10:00:19;5.43;;;4.67;;
38435;SDS011;24220;48.168;14.024;2023-03-23T10:03:05;7.25;;;4.65;;
38435;SDS011;24220;48.168;14.024;2023-03-23T10:05:50;6.35;;;4.20;;
38435;SDS011;24220;48.168;14.024;2023-03-23T10:08:19;6.13;;;5.13;;
38435;SDS011;24220;48.168;14.024;2023-03-23T10:13:28;6.43;;;5.75;;
38435;SDS011;24220;48.168;14.024;2023-03-23T10:16:05;8.50;;;5.68;;
38435;SDS011;24220;48.168;14.024;2023-03-23T10:18:44;9.32;;;6.25;;
38435;SDS011;24220;48.168;14.024;2023-03-23T10:21:32;7.57;;;5.80;;
38435;SDS011;24220;48.168;14.024;2023-03-23T10:24:10;8.25;;;6.30;;
38435;SDS011;24220;48.168;14.024;2023-03-23T10:37:31;9.35;;;6.25;;
38435;SDS011;24220;48.168;14.024;2023-03-23T10:40:11;8.63;;;5.80;;
38435;SDS011;24220;48.168;14.024;2023-03-23T10:42:41;7.10;;;6.15;;
38435;SDS011;24220;48.168;14.024;2023-03-23T10:45:19;9.05;;;6.38;;
38435;SDS011;24220;48.168;14.024;2023-03-23T10:48:11;7.43;;;6.40;;
38435;SDS011;24220;48.168;14.024;2023-03-23T10:50:55;8.73;;;6.45;;
38435;SDS011;24220;48.168;14.024;2023-03-23T10:53:38;8.48;;;6.30;;
38435;SDS011;24220;48.168;14.024;2023-03-23T10:59:14;8.40;;;6.35;;
38435;SDS011;24220;48.168;14.024;2023-03-23T11:01:51;8.73;;;6.75;;
38435;SDS011;24220;48.168;14.024;2023-03-23T11:04:21;9.23;;;6.78;;
38435;SDS011;24220;48.168;14.024;2023-03-23T11:06:58;10.93;;;6.22;;
38435;SDS011;24220;48.168;14.024;2023-03-23T11:09:35;8.23;;;5.90;;
38435;SDS011;24220;48.168;14.024;2023-03-23T11:12:03;7.88;;;5.80;;
38435;SDS011;24220;48.168;14.024;2023-03-23T11:14:41;10.05;;;6.38;;
38435;SDS011;24220;48.168;14.024;2023-03-23T11:17:24;7.78;;;6.13;;
38435;SDS011;24220;48.168;14.024;2023-03-23T11:19:53;10.57;;;5.57;;
38435;SDS011;24220;48.168;14.024;2023-03-23T11:22:31;7.45;;;5.65;;
38435;SDS011;24220;48.168;14.024;2023-03-23T11:25:03;10.98;;;5.95;;
38435;SDS011;24220;48.168;14.024;2023-03-23T11:27:33;6.55;;;5.18;;
38435;SDS011;24220;48.168;14.024;2023-03-23T11:30:18;8.63;;;5.63;;
38435;SDS011;24220;48.168;14.024;2023-03-23T11:32:49;8.60;;;5.65;;
38435;SDS011;24220;48.168;14.024;2023-03-23T11:35:21;20.98;;;9.35;;
38435;SDS011;24220;48.168;14.024;2023-03-23T11:40:48;9.80;;;6.47;;
38435;SDS011;24220;48.168;14.024;2023-03-23T11:43:22;8.18;;;5.80;;
38435;SDS011;24220;48.168;14.024;2023-03-23T11:51:10;7.38;;;5.25;;
38435;SDS011;24220;48.168;14.024;2023-03-23T11:53:52;8.30;;;6.03;;
38435;SDS011;24220;48.168;14.024;2023-03-23T11:56:33;7.85;;;6.45;;
38435;SDS011;24220;48.168;14.024;2023-03-23T11:59:05;8.38;;;5.90;;
38435;SDS011;24220;48.168;14.024;2023-03-23T12:01:47;8.05;;;4.78;;
38435;SDS011;24220;48.168;14.024;2023-03-23T12:21:10;6.55;;;5.07;;
38435;SDS011;24220;48.168;14.024;2023-03-23T12:24:08;7.57;;;4.63;;
38435;SDS011;24220;48.168;14.024;2023-03-23T12:38:53;6.15;;;4.28;;
38435;SDS011;24220;48.168;14.024;2023-03-23T12:41:11;6.90;;;4.80;;
38435;SDS011;24220;48.168;14.024;2023-03-23T12:44:02;6.88;;;4.78;;
38435;SDS011;24220;48.168;14.024;2023-03-23T12:46:39;6.35;;;4.63;;
38435;SDS011;24220;48.168;14.024;2023-03-23T12:49:24;6.35;;;3.90;;
38435;SDS011;24220;48.168;14.024;2023-03-23T12:57:50;9.30;;;5.47;;
38435;SDS011;24220;48.168;14.024;2023-03-23T13:00:27;7.13;;;5.03;;
38435;SDS011;24220;48.168;14.024;2023-03-23T13:05:35;5.43;;;3.97;;
38435;SDS011;24220;48.168;14.024;2023-03-23T13:08:30;13.43;;;6.53;;
38435;SDS011;24220;48.168;14.024;2023-03-23T13:11:05;6.90;;;4.65;;
38435;SDS011;24220;48.168;14.024;2023-03-23T13:13:59;6.93;;;3.65;;
38435;SDS011;24220;48.168;14.024;2023-03-23T13:20:17;8.55;;;4.78;;
38435;SDS011;24220;48.168;14.024;2023-03-23T13:28:20;4.65;;;3.25;;
38435;SDS011;24220;48.168;14.024;2023-03-23T13:30:58;5.57;;;3.30;;
38435;SDS011;24220;48.168;14.024;2023-03-23T13:33:31;4.93;;;3.08;;
38435;SDS011;24220;48.168;14.024;2023-03-23T13:36:12;4.60;;;3.15;;
38435;SDS011;24220;48.168;14.024;2023-03-23T13:38:48;4.05;;;2.47;;
38435;SDS011;24220;48.168;14.024;2023-03-23T13:41:20;3.88;;;2.22;;
38435;SDS011;24220;48.168;14.024;2023-03-23T13:43:52;2.88;;;2.10;;
38435;SDS011;24220;48.168;14.024;2023-03-23T13:46:31;3.03;;;1.73;;
38435;SDS011;24220;48.168;14.024;2023-03-23T13:52:14;2.10;;;1.52;;
38435;SDS011;24220;48.168;14.024;2023-03-23T13:54:44;3.22;;;1.30;;
38435;SDS011;24220;48.168;14.024;2023-03-23T14:03:00;1.98;;;1.35;;
38435;SDS011;24220;48.168;14.024;2023-03-23T14:05:37;1.63;;;1.33;;
38435;SDS011;24220;48.168;14.024;2023-03-23T14:10:55;1.60;;;1.50;;
38435;SDS011;24220;48.168;14.024;2023-03-23T14:13:41;2.35;;;1.27;;
38435;SDS011;24220;48.168;14.024;2023-03-23T14:18:55;4.47;;;1.60;;
38435;SDS011;24220;48.168;14.024;2023-03-23T14:24:02;1.98;;;1.70;;
38435;SDS011;24220;48.168;14.024;2023-03-23T14:26:36;4.15;;;1.30;;
38435;SDS011;24220;48.168;14.024;2023-03-23T14:29:03;2.47;;;1.60;;
38435;SDS011;24220;48.168;14.024;2023-03-23T14:31:34;3.42;;;1.70;;
38435;SDS011;24220;48.168;14.024;2023-03-23T14:34:03;2.00;;;1.50;;
38435;SDS011;24220;48.168;14.024;2023-03-23T14:36:41;2.20;;;1.70;;
38435;SDS011;24220;48.168;14.024;2023-03-23T14:41:51;5.55;;;3.58;;
38435;SDS011;24220;48.168;14.024;2023-03-23T14:44:27;3.08;;;1.77;;
38435;SDS011;24220;48.168;14.024;2023-03-23T14:47:05;2.55;;;2.00;;
38435;SDS011;24220;48.168;14.024;2023-03-23T14:49:40;2.30;;;1.60;;
38435;SDS011;24220;48.168;14.024;2023-03-23T14:54:43;2.78;;;1.92;;
38435;SDS011;24220;48.168;14.024;2023-03-23T14:59:45;2.80;;;2.00;;
38435;SDS011;24220;48.168;14.024;2023-03-23T15:02:36;2.72;;;2.00;;
38435;SDS011;24220;48.168;14.024;2023-03-23T15:05:14;3.55;;;1.90;;
38435;SDS011;24220;48.168;14.024;2023-03-23T15:07:46;2.80;;;1.70;;
38435;SDS011;24220;48.168;14.024;2023-03-23T15:10:17;4.00;;;1.90;;
38435;SDS011;24220;48.168;14.024;2023-03-23T15:12:46;2.20;;;1.80;;
38435;SDS011;24220;48.168;14.024;2023-03-23T15:17:50;4.43;;;2.40;;
38435;SDS011;24220;48.168;14.024;2023-03-23T15:20:20;2.55;;;1.70;;
38435;SDS011;24220;48.168;14.024;2023-03-23T15:22:51;2.83;;;1.60;;
38435;SDS011;24220;48.168;14.024;2023-03-23T15:27:56;2.10;;;1.40;;
38435;SDS011;24220;48.168;14.024;2023-03-23T15:30:33;4.00;;;1.90;;
38435;SDS011;24220;48.168;14.024;2023-03-23T15:33:08;3.00;;;1.45;;
38435;SDS011;24220;48.168;14.024;2023-03-23T15:35:41;3.33;;;1.30;;
38435;SDS011;24220;48.168;14.024;2023-03-23T15:38:18;2.78;;;1.55;;
38435;SDS011;24220;48.168;14.024;2023-03-23T15:40:56;2.95;;;1.63;;
38435;SDS011;24220;48.168;14.024;2023-03-23T15:46:04;2.55;;;1.60;;
38435;SDS011;24220;48.168;14.024;2023-03-23T15:51:27;2.92;;;1.90;;
38435;SDS011;24220;48.168;14.024;2023-03-23T15:53:57;2.42;;;1.90;;
38435;SDS011;24220;48.168;14.024;2023-03-23T15:56:24;3.45;;;2.03;;
38435;SDS011;24220;48.168;14.024;2023-03-23T15:58:51;2.55;;;1.80;;
38435;SDS011;24220;48.168;14.024;2023-03-23T16:01:26;2.83;;;2.10;;
38435;SDS011;24220;48.168;14.024;2023-03-23T16:06:25;5.05;;;2.67;;
38435;SDS011;24220;48.168;14.024;2023-03-23T16:08:59;4.93;;;1.83;;
38435;SDS011;24220;48.168;14.024;2023-03-23T16:11:30;3.92;;;2.40;;
38435;SDS011;24220;48.168;14.024;2023-03-23T16:14:01;5.43;;;3.47;;
38435;SDS011;24220;48.168;14.024;2023-03-23T16:16:34;6.57;;;3.13;;
38435;SDS011;24220;48.168;14.024;2023-03-23T16:19:13;4.65;;;2.72;;
38435;SDS011;24220;48.168;14.024;2023-03-23T16:21:42;3.40;;;2.45;;
38435;SDS011;24220;48.168;14.024;2023-03-23T16:24:10;3.95;;;2.53;;
38435;SDS011;24220;48.168;14.024;2023-03-23T16:26:42;4.35;;;2.60;;
38435;SDS011;24220;48.168;14.024;2023-03-23T16:29:15;3.25;;;2.67;;
38435;SDS011;24220;48.168;14.024;2023-03-23T16:32:03;4.10;;;2.65;;
38435;SDS011;24220;48.168;14.024;2023-03-23T16:34:30;3.10;;;2.70;;
38435;SDS011;24220;48.168;14.024;2023-03-23T16:37:03;3.10;;;2.25;;
38435;SDS011;24220;48.168;14.024;2023-03-23T16:39:33;7.78;;;2.72;;
38435;SDS011;24220;48.168;14.024;2023-03-23T16:42:02;4.68;;;2.67;;
38435;SDS011;24220;48.168;14.024;2023-03-23T16:44:30;3.17;;;2.38;;
38435;SDS011;24220;48.168;14.024;2023-03-23T16:47:02;4.07;;;2.63;;
38435;SDS011;24220;48.168;14.024;2023-03-23T16:49:29;3.30;;;2.58;;
38435;SDS011;24220;48.168;14.024;2023-03-23T16:51:57;5.07;;;3.13;;
38435;SDS011;24220;48.168;14.024;2023-03-23T16:54:24;6.13;;;3.30;;
38435;SDS011;24220;48.168;14.024;2023-03-23T16:56:57;5.03;;;3.20;;
38435;SDS011;24220;48.168;14.024;2023-03-23T16:59:27;5.38;;;3.35;;
38435;SDS011;24220;48.168;14.024;2023-03-23T17:01:57;6.18;;;3.53;;
38435;SDS011;24220;48.168;14.024;2023-03-23T17:04:41;6.28;;;4.07;;
38435;SDS011;24220;48.168;14.024;2023-03-23T17:07:39;6.95;;;4.50;;
38435;SDS011;24220;48.168;14.024;2023-03-23T17:10:13;9.93;;;6.10;;
38435;SDS011;24220;48.168;14.024;2023-03-23T17:13:11;8.85;;;5.85;;
38435;SDS011;24220;48.168;14.024;2023-03-23T17:16:13;8.25;;;5.88;;
38435;SDS011;24220;48.168;14.024;2023-03-23T17:18:57;6.75;;;5.18;;
38435;SDS011;24220;48.168;14.024;2023-03-23T17:21:39;6.47;;;5.05;;
38435;SDS011;24220;48.168;14.024;2023-03-23T17:24:10;6.43;;;4.70;;
38435;SDS011;24220;48.168;14.024;2023-03-23T17:26:39;5.93;;;4.03;;
38435;SDS011;24220;48.168;14.024;2023-03-23T17:29:06;5.90;;;4.35;;
38435;SDS011;24220;48.168;14.024;2023-03-23T17:31:34;7.72;;;4.70;;
38435;SDS011;24220;48.168;14.024;2023-03-23T17:34:02;5.57;;;3.70;;
38435;SDS011;24220;48.168;14.024;2023-03-23T17:36:30;5.20;;;3.70;;